Time;durP1;ratioP1;P1;durP2;ratioP2;P2;SDS_P1;SDS_P2;PMS_P1;PMS_P2;Temp;Humidity;BMP_temperature;BMP_pressure;BME280_temperature;BME280_humidity;BME280_pressure;Samples;Min_cycle;Max_cycle;Signal;HPM_P1;HPM_P2
2022/10/08 00:00:54;;;;;;;;;;;10.20;99.90;;;;;;5093889;28;20268;-76
2022/10/08 00:03:21;;;;;;;;;;;9.60;99.90;;;;;;5096742;28;19904;-76
2022/10/08 00:05:58;;;;;;;;;;;10.10;99.90;;;;;;5080955;28;19904;-79
2022/10/08 00:08:28;;;;;;;;;;;9.60;99.90;;;;;;5081669;28;20298;-77
2022/10/08 00:10:57;;;;;;;;;;;9.60;99.90;;;;;;5065221;28;19969;-79
2022/10/08 00:13:28;;;;;;;;;;;10.10;99.90;;;;;;5101156;28;19935;-76
2022/10/08 00:15:57;;;;;;;;;;;9.60;99.90;;;;;;5101417;28;20010;-77
2022/10/08 00:18:22;;;;;;;;;;;9.60;99.90;;;;;;5082221;28;19908;-77
2022/10/08 00:20:48;;;;;;;;;;;9.60;99.90;;;;;;5080978;28;19940;-76
2022/10/08 00:23:15;;;;;;;;;;;10.20;99.90;;;;;;5099342;28;19926;-77
2022/10/08 00:25:43;;;;;;;;;;;9.60;99.90;;;;;;5099649;28;19930;-76
2022/10/08 00:28:09;;;;;;;;;;;9.60;99.90;;;;;;5097768;28;20370;-77
2022/10/08 00:30:39;;;;;;;;;;;9.70;99.90;;;;;;5076795;28;19919;-77
2022/10/08 00:33:05;;;;;;;;;;;9.60;99.90;;;;;;5096492;28;19904;-77
2022/10/08 00:35:37;;;;;;;;;;;9.70;99.90;;;;;;5096105;28;19911;-77
2022/10/08 00:38:03;;;;;;;;;;;9.70;99.90;;;;;;5076807;28;19927;-77
2022/10/08 00:40:30;;;;;;;;;;;9.70;99.90;;;;;;5096408;28;19904;-77
2022/10/08 00:43:02;;;;;;;;;;;9.60;99.90;;;;;;5097247;28;19904;-77
2022/10/08 00:45:28;;;;;;;;;;;9.70;99.90;;;;;;5096225;28;19904;-76
2022/10/08 00:47:56;;;;;;;;;;;9.70;99.90;;;;;;5096669;28;19941;-77
2022/10/08 00:50:31;;;;;;;;;;;9.70;99.90;;;;;;5094014;28;19949;-77
2022/10/08 00:53:00;;;;;;;;;;;9.70;99.90;;;;;;5096066;28;20112;-76
2022/10/08 00:55:26;;;;;;;;;;;9.70;99.90;;;;;;5095187;28;19907;-76
2022/10/08 00:57:53;;;;;;;;;;;9.70;99.90;;;;;;5094403;28;20160;-77
2022/10/08 01:00:23;;;;;;;;;;;10.20;99.90;;;;;;5095652;28;19904;-77
2022/10/08 01:02:48;;;;;;;;;;;9.50;99.90;;;;;;5099123;28;19904;-77
2022/10/08 01:05:21;;;;;;;;;;;9.60;99.90;;;;;;5099622;28;20341;-78
2022/10/08 01:07:48;;;;;;;;;;;9.50;99.90;;;;;;5099401;28;19916;-77
2022/10/08 01:10:22;;;;;;;;;;;9.40;99.90;;;;;;5098813;28;20100;-77
2022/10/08 01:13:17;;;;;;;;;;;9.30;99.90;;;;;;5094727;28;19912;-76
2022/10/08 01:15:59;;;;;;;;;;;9.20;99.90;;;;;;4991100;28;19945;-76
2022/10/08 01:18:36;;;;;;;;;;;9.20;99.90;;;;;;4989923;28;19906;-77
2022/10/08 01:21:25;;;;;;;;;;;9.10;99.90;;;;;;4989801;28;20067;-76
2022/10/08 01:24:03;;;;;;;;;;;8.40;99.90;;;;;;4990470;28;19981;-76
2022/10/08 01:26:31;;;;;;;;;;;8.90;99.90;;;;;;4990145;28;19914;-76
2022/10/08 01:29:15;;;;;;;;;;;9.20;99.90;;;;;;4989956;28;19930;-76
2022/10/08 01:31:45;;;;;;;;;;;9.20;99.90;;;;;;4990440;28;19912;-76
2022/10/08 01:34:17;;;;;;;;;;;9.20;99.90;;;;;;4989385;28;19910;-76
2022/10/08 01:36:45;;;;;;;;;;;9.20;99.90;;;;;;4972168;28;19910;-77
2022/10/08 01:39:16;;;;;;;;;;;9.20;99.90;;;;;;4990854;28;19937;-76
2022/10/08 01:41:45;;;;;;;;;;;6.30;99.90;;;;;;4991576;28;20275;-77
2022/10/08 01:44:41;;;;;;;;;;;9.10;99.90;;;;;;4974665;28;19905;-77
2022/10/08 01:47:09;;;;;;;;;;;9.00;99.90;;;;;;4932993;29;19936;-76
2022/10/08 01:49:57;;;;;;;;;;;9.90;99.90;;;;;;4933474;29;19922;-76
2022/10/08 01:52:26;;;;;;;;;;;9.00;99.90;;;;;;4989087;28;20159;-76
2022/10/08 01:54:54;;;;;;;;;;;8.80;99.90;;;;;;5029990;28;20010;-77
2022/10/08 01:57:20;;;;;;;;;;;8.80;99.90;;;;;;5030513;28;19909;-76
2022/10/08 01:59:48;;;;;;;;;;;8.50;99.90;;;;;;5031328;28;19948;-76
2022/10/08 02:02:21;;;;;;;;;;;9.00;99.90;;;;;;5029559;28;20137;-76
2022/10/08 02:04:48;;;;;;;;;;;8.20;99.90;;;;;;5013798;28;20398;-76
2022/10/08 02:07:16;;;;;;;;;;;9.00;99.90;;;;;;5015311;28;19917;-76
2022/10/08 02:09:45;;;;;;;;;;;7.50;99.90;;;;;;5014384;28;19909;-76
2022/10/08 02:12:11;;;;;;;;;;;9.00;99.90;;;;;;5030320;28;19955;-76
2022/10/08 02:14:38;;;;;;;;;;;8.80;99.90;;;;;;5028808;28;19991;-77
2022/10/08 02:17:10;;;;;;;;;;;8.60;99.90;;;;;;5028511;28;19907;-76
2022/10/08 02:19:56;;;;;;;;;;;8.50;99.90;;;;;;5029102;28;19992;-76
2022/10/08 02:22:25;;;;;;;;;;;8.60;99.90;;;;;;5012856;28;19981;-76
2022/10/08 02:24:54;;;;;;;;;;;8.60;99.90;;;;;;5089653;28;19950;-77
2022/10/08 02:27:24;;;;;;;;;;;8.60;99.90;;;;;;5090055;28;19923;-76
2022/10/08 02:30:03;;;;;;;;;;;8.50;99.90;;;;;;5079854;28;19914;-76
2022/10/08 02:32:34;;;;;;;;;;;6.20;99.90;;;;;;5097254;28;19969;-77
2022/10/08 02:35:12;;;;;;;;;;;8.00;99.90;;;;;;5098592;28;19904;-76
2022/10/08 02:37:44;;;;;;;;;;;8.50;99.90;;;;;;5098286;28;19910;-77
2022/10/08 02:40:11;;;;;;;;;;;8.50;99.90;;;;;;5097330;28;19910;-77
2022/10/08 02:42:39;;;;;;;;;;;8.50;99.90;;;;;;5097580;28;19908;-76
2022/10/08 02:45:25;;;;;;;;;;;7.10;99.90;;;;;;5090964;28;19903;-76
2022/10/08 02:47:53;;;;;;;;;;;8.50;99.90;;;;;;5087526;28;19911;-76
2022/10/08 02:50:20;;;;;;;;;;;8.50;99.90;;;;;;5088631;28;20239;-76
2022/10/08 02:52:47;;;;;;;;;;;8.50;99.90;;;;;;5087403;28;19926;-76
2022/10/08 02:55:49;;;;;;;;;;;8.40;99.90;;;;;;5087724;28;19908;-77
2022/10/08 02:58:15;;;;;;;;;;;8.40;99.90;;;;;;4985394;28;20009;-76
2022/10/08 03:01:11;;;;;;;;;;;8.30;99.90;;;;;;4981497;28;19952;-76
2022/10/08 03:03:41;;;;;;;;;;;8.20;99.90;;;;;;4994468;28;19981;-76
2022/10/08 03:06:08;;;;;;;;;;;8.30;99.90;;;;;;4993896;28;20108;-76
2022/10/08 03:08:35;;;;;;;;;;;8.20;99.90;;;;;;4993883;28;19914;-77
2022/10/08 03:11:03;;;;;;;;;;;8.30;99.90;;;;;;4996850;28;19912;-77
2022/10/08 03:13:38;;;;;;;;;;;8.20;99.90;;;;;;4997490;28;19918;-76
2022/10/08 03:16:06;;;;;;;;;;;6.80;99.90;;;;;;4981837;28;20407;-76
2022/10/08 03:18:32;;;;;;;;;;;8.10;99.90;;;;;;4999844;28;19960;-76
2022/10/08 03:20:58;;;;;;;;;;;8.10;99.90;;;;;;4996867;28;20165;-76
2022/10/08 03:23:24;;;;;;;;;;;8.00;99.90;;;;;;4975468;28;20191;-77
2022/10/08 03:26:00;;;;;;;;;;;7.70;99.90;;;;;;4997118;28;20065;-77
2022/10/08 03:28:25;;;;;;;;;;;8.30;99.90;;;;;;5000013;28;19916;-77
2022/10/08 03:30:51;;;;;;;;;;;7.90;99.90;;;;;;4999669;28;20040;-75
2022/10/08 03:33:17;;;;;;;;;;;7.80;99.90;;;;;;5093699;28;19967;-77
2022/10/08 03:35:43;;;;;;;;;;;7.20;99.90;;;;;;5100712;28;19908;-76
2022/10/08 03:38:10;;;;;;;;;;;7.70;99.90;;;;;;5100370;28;19979;-77
2022/10/08 03:40:37;;;;;;;;;;;8.20;99.90;;;;;;5098339;28;20417;-77
2022/10/08 03:43:05;;;;;;;;;;;7.70;99.90;;;;;;5099502;28;19912;-76
2022/10/08 03:45:31;;;;;;;;;;;7.70;99.90;;;;;;5099967;28;20163;-76
2022/10/08 03:47:57;;;;;;;;;;;7.70;99.90;;;;;;5099248;28;20380;-76
2022/10/08 03:50:23;;;;;;;;;;;7.80;99.90;;;;;;5098960;28;20009;-76
2022/10/08 03:52:49;;;;;;;;;;;5.40;99.90;;;;;;5082103;28;19907;-76
2022/10/08 03:55:15;;;;;;;;;;;8.10;99.90;;;;;;5100039;28;20389;-76
2022/10/08 03:57:40;;;;;;;;;;;8.00;99.90;;;;;;5084298;28;19908;-77
2022/10/08 04:00:07;;;;;;;;;;;7.80;99.90;;;;;;5105512;28;19919;-77
2022/10/08 04:02:32;;;;;;;;;;;7.60;99.90;;;;;;5069139;28;20048;-77
2022/10/08 04:04:58;;;;;;;;;;;8.40;99.90;;;;;;5104941;28;19948;-76
2022/10/08 04:07:24;;;;;;;;;;;7.60;99.90;;;;;;5102394;28;19908;-76
2022/10/08 04:09:49;;;;;;;;;;;8.00;99.90;;;;;;5081966;28;20314;-76
2022/10/08 04:12:15;;;;;;;;;;;7.60;99.90;;;;;;5097289;28;20405;-76
2022/10/08 04:14:43;;;;;;;;;;;7.60;99.90;;;;;;5099677;28;20179;-76
2022/10/08 04:17:10;;;;;;;;;;;7.90;99.90;;;;;;5097761;28;19928;-77
2022/10/08 04:19:38;;;;;;;;;;;8.20;99.90;;;;;;5079963;28;19908;-76
2022/10/08 04:22:03;;;;;;;;;;;7.60;99.90;;;;;;5082077;28;19931;-77
2022/10/08 04:24:32;;;;;;;;;;;7.60;99.90;;;;;;5104176;28;19903;-76
2022/10/08 04:26:57;;;;;;;;;;;7.60;99.90;;;;;;5104564;28;19976;-77
2022/10/08 04:29:24;;;;;;;;;;;7.50;99.90;;;;;;5083618;28;20233;-77
2022/10/08 04:31:50;;;;;;;;;;;7.60;99.90;;;;;;5101935;28;20112;-76
2022/10/08 04:34:18;;;;;;;;;;;7.30;99.90;;;;;;5095944;28;19904;-76
2022/10/08 04:36:44;;;;;;;;;;;7.60;99.90;;;;;;5098621;28;20317;-76
2022/10/08 04:39:14;;;;;;;;;;;7.50;99.90;;;;;;5094295;28;19904;-78
2022/10/08 04:41:40;;;;;;;;;;;6.80;99.90;;;;;;5096259;28;19920;-76
2022/10/08 04:44:06;;;;;;;;;;;10.40;99.90;;;;;;5096828;28;20443;-76
2022/10/08 04:46:33;;;;;;;;;;;7.50;99.90;;;;;;5097778;28;20153;-76
2022/10/08 04:48:59;;;;;;;;;;;7.80;99.90;;;;;;5095868;28;20281;-77
2022/10/08 04:51:27;;;;;;;;;;;7.20;99.90;;;;;;5095114;28;20200;-76
2022/10/08 04:53:54;;;;;;;;;;;7.40;99.90;;;;;;5075459;28;19951;-76
2022/10/08 04:56:22;;;;;;;;;;;9.90;99.90;;;;;;5075441;28;19975;-76
2022/10/08 04:58:48;;;;;;;;;;;7.80;99.90;;;;;;5091764;28;19904;-77
2022/10/08 05:01:16;;;;;;;;;;;7.30;99.90;;;;;;5091835;28;20371;-76
2022/10/08 05:03:43;;;;;;;;;;;7.30;99.90;;;;;;5093425;28;20071;-76
2022/10/08 05:06:10;;;;;;;;;;;7.30;99.90;;;;;;5095350;28;20580;-76
2022/10/08 05:08:36;;;;;;;;;;;6.90;99.90;;;;;;5092300;28;20180;-77
2022/10/08 05:11:03;;;;;;;;;;;7.30;99.90;;;;;;5070763;28;19908;-76
2022/10/08 05:13:29;;;;;;;;;;;7.10;99.90;;;;;;5069785;28;20383;-76
2022/10/08 05:15:54;;;;;;;;;;;7.20;99.90;;;;;;5069806;28;19974;-76
2022/10/08 05:18:21;;;;;;;;;;;7.10;99.90;;;;;;5088203;28;19904;-77
2022/10/08 05:20:47;;;;;;;;;;;7.10;99.90;;;;;;5087710;28;19904;-77
2022/10/08 05:23:12;;;;;;;;;;;6.70;99.90;;;;;;5069501;28;20409;-76
2022/10/08 05:25:38;;;;;;;;;;;7.10;99.90;;;;;;5092709;28;19915;-76
2022/10/08 05:28:03;;;;;;;;;;;7.10;99.90;;;;;;5091618;28;19912;-76
2022/10/08 05:30:32;;;;;;;;;;;7.10;99.90;;;;;;5076502;28;19915;-77
2022/10/08 05:33:02;;;;;;;;;;;7.10;99.90;;;;;;5092639;28;19904;-77
2022/10/08 05:35:28;;;;;;;;;;;7.10;99.90;;;;;;5072602;28;19907;-76
2022/10/08 05:37:56;;;;;;;;;;;7.40;99.90;;;;;;5093153;28;19911;-76
2022/10/08 05:40:23;;;;;;;;;;;7.00;99.90;;;;;;5089351;28;19904;-76
2022/10/08 05:42:48;;;;;;;;;;;6.90;99.90;;;;;;5070616;28;19904;-76
2022/10/08 05:45:15;;;;;;;;;;;7.30;99.90;;;;;;5090264;28;19904;-75
2022/10/08 05:47:40;;;;;;;;;;;7.40;99.90;;;;;;5089503;28;19916;-76
2022/10/08 05:50:07;;;;;;;;;;;7.50;99.90;;;;;;5090654;28;19904;-77
2022/10/08 05:52:32;;;;;;;;;;;7.50;99.90;;;;;;5089445;28;19907;-76
2022/10/08 05:54:59;;;;;;;;;;;7.70;99.90;;;;;;5088330;28;20386;-76
2022/10/08 05:57:24;;;;;;;;;;;7.80;99.90;;;;;;5088761;28;20121;-76
2022/10/08 05:59:51;;;;;;;;;;;7.80;99.90;;;;;;5088586;28;19904;-76
2022/10/08 06:02:18;;;;;;;;;;;7.90;99.90;;;;;;5088545;28;19904;-76
2022/10/08 06:04:43;;;;;;;;;;;7.90;99.90;;;;;;5088347;28;19908;-76
2022/10/08 06:07:12;;;;;;;;;;;7.90;99.90;;;;;;5069770;28;20192;-76
2022/10/08 06:09:37;;;;;;;;;;;7.80;99.90;;;;;;5053197;28;20291;-77
2022/10/08 06:12:03;;;;;;;;;;;8.20;99.90;;;;;;5073015;28;19959;-77
2022/10/08 06:14:29;;;;;;;;;;;8.00;99.90;;;;;;5069229;28;19904;-77
2022/10/08 06:16:55;;;;;;;;;;;8.30;99.90;;;;;;5069535;28;19916;-76
2022/10/08 06:19:21;;;;;;;;;;;8.40;99.90;;;;;;5089356;28;19904;-77
2022/10/08 06:21:48;;;;;;;;;;;8.50;99.90;;;;;;5089657;28;20444;-77
2022/10/08 06:24:14;;;;;;;;;;;8.40;99.90;;;;;;5089457;28;19904;-77
2022/10/08 06:26:41;;;;;;;;;;;8.70;99.90;;;;;;5087580;28;19923;-77
2022/10/08 06:29:07;;;;;;;;;;;8.80;99.90;;;;;;5087215;28;19904;-76
2022/10/08 06:31:33;;;;;;;;;;;8.90;99.90;;;;;;5068466;28;19915;-76
2022/10/08 06:33:59;;;;;;;;;;;9.00;99.90;;;;;;5067668;28;19929;-76
2022/10/08 06:36:28;;;;;;;;;;;6.10;99.90;;;;;;5085138;28;19904;-78
2022/10/08 06:38:56;;;;;;;;;;;9.00;99.90;;;;;;5086702;28;19942;-77
2022/10/08 06:41:24;;;;;;;;;;;9.10;99.90;;;;;;5087003;28;20282;-77
2022/10/08 06:43:49;;;;;;;;;;;9.00;99.90;;;;;;5086729;28;19908;-77
2022/10/08 06:46:16;;;;;;;;;;;9.20;99.90;;;;;;5086862;28;19916;-77
2022/10/08 06:48:47;;;;;;;;;;;9.30;99.90;;;;;;5068941;28;20494;-77
2022/10/08 06:51:15;;;;;;;;;;;9.30;99.90;;;;;;5088649;28;19908;-78
2022/10/08 06:53:41;;;;;;;;;;;9.50;99.90;;;;;;5086030;28;19912;-77
2022/10/08 06:56:09;;;;;;;;;;;9.50;99.90;;;;;;5086388;28;19940;-76
2022/10/08 06:58:38;;;;;;;;;;;7.00;99.90;;;;;;5087679;28;20351;-77
2022/10/08 07:01:05;;;;;;;;;;;9.90;99.90;;;;;;5086668;28;19915;-76
2022/10/08 07:03:31;;;;;;;;;;;10.10;99.90;;;;;;5068615;28;19904;-77
2022/10/08 07:06:00;;;;;;;;;;;10.20;99.90;;;;;;5086440;28;20700;-77
2022/10/08 07:08:26;;;;;;;;;;;10.10;99.90;;;;;;5068206;28;19908;-77
2022/10/08 07:10:53;;;;;;;;;;;10.50;99.90;;;;;;5087438;28;19904;-77
2022/10/08 07:13:19;;;;;;;;;;;10.60;99.90;;;;;;5088158;28;19916;-77
2022/10/08 07:15:47;;;;;;;;;;;10.70;99.90;;;;;;5068874;28;20377;-78
2022/10/08 07:18:17;;;;;;;;;;;10.80;99.90;;;;;;5090264;28;19912;-77
2022/10/08 07:20:52;;;;;;;;;;;11.00;99.90;;;;;;5087349;28;19911;-77
2022/10/08 07:23:19;;;;;;;;;;;11.10;99.90;;;;;;5085541;28;20287;-78
2022/10/08 07:25:53;;;;;;;;;;;11.20;99.90;;;;;;5085010;28;19915;-77
2022/10/08 07:28:19;;;;;;;;;;;11.40;99.90;;;;;;5065208;28;19937;-76
2022/10/08 07:30:44;;;;;;;;;;;11.50;99.90;;;;;;5083032;28;19982;-78
2022/10/08 07:33:10;;;;;;;;;;;11.50;99.90;;;;;;5082884;28;19992;-79
2022/10/08 07:35:36;;;;;;;;;;;11.70;99.90;;;;;;5063791;28;20096;-77
2022/10/08 07:38:01;;;;;;;;;;;11.80;99.90;;;;;;5082512;28;19904;-77
2022/10/08 07:40:27;;;;;;;;;;;12.00;99.90;;;;;;5084085;28;19904;-79
2022/10/08 07:42:53;;;;;;;;;;;11.60;99.90;;;;;;5063565;28;20232;-78
2022/10/08 07:45:19;;;;;;;;;;;12.00;99.90;;;;;;5084893;28;19904;-78
2022/10/08 07:47:45;;;;;;;;;;;12.10;99.90;;;;;;5083568;28;19912;-77
2022/10/08 07:50:12;;;;;;;;;;;12.10;99.90;;;;;;5066198;28;19934;-83
2022/10/08 07:52:37;;;;;;;;;;;12.40;99.90;;;;;;5083459;28;19908;-77
2022/10/08 07:55:03;;;;;;;;;;;12.50;99.90;;;;;;5080576;28;19920;-77
2022/10/08 07:57:29;;;;;;;;;;;14.30;99.90;;;;;;5061266;28;19908;-77
2022/10/08 07:59:55;;;;;;;;;;;12.80;99.90;;;;;;5078980;28;19939;-77
2022/10/08 08:02:20;;;;;;;;;;;12.90;99.90;;;;;;5060784;28;19904;-77
2022/10/08 08:04:46;;;;;;;;;;;13.20;99.90;;;;;;5061276;28;20409;-80
2022/10/08 08:07:11;;;;;;;;;;;13.00;99.90;;;;;;5079875;28;20219;-81
2022/10/08 08:09:37;;;;;;;;;;;13.10;99.90;;;;;;5078899;28;20374;-79
2022/10/08 08:12:03;;;;;;;;;;;12.80;99.90;;;;;;5063566;28;20526;-83
2022/10/08 08:14:28;;;;;;;;;;;13.10;99.90;;;;;;5062714;28;19912;-80
2022/10/08 08:16:54;;;;;;;;;;;13.10;99.90;;;;;;5082518;28;19908;-80
2022/10/08 08:19:19;;;;;;;;;;;13.00;99.90;;;;;;5083555;28;19904;-88
2022/10/08 08:21:45;;;;;;;;;;;12.40;99.90;;;;;;5084598;28;20520;-80
2022/10/08 08:24:12;;;;;;;;;;;13.00;99.90;;;;;;5083922;28;19987;-81
2022/10/08 08:26:38;;;;;;;;;;;12.90;99.90;;;;;;5083780;28;19983;-78
2022/10/08 08:29:09;;;;;;;;;;;9.80;99.90;;;;;;5082775;28;19912;-78
2022/10/08 08:31:36;;;;;;;;;;;13.10;99.90;;;;;;5081011;28;20014;-78
2022/10/08 08:34:04;;;;;;;;;;;13.10;99.90;;;;;;5080930;28;20147;-78
2022/10/08 08:36:31;;;;;;;;;;;13.30;99.90;;;;;;5081443;28;20027;-81
2022/10/08 08:38:57;;;;;;;;;;;13.40;99.90;;;;;;5063200;28;19904;-79
2022/10/08 08:41:35;;;;;;;;;;;13.60;99.90;;;;;;5082083;28;20341;-79
2022/10/08 08:44:02;;;;;;;;;;;12.70;99.90;;;;;;5062735;28;20495;-79
2022/10/08 08:46:32;;;;;;;;;;;13.90;99.90;;;;;;5082568;28;20401;-80
2022/10/08 08:49:01;;;;;;;;;;;14.10;99.90;;;;;;5083339;28;19919;-80
2022/10/08 08:51:27;;;;;;;;;;;14.40;99.90;;;;;;5081842;28;19903;-80
2022/10/08 08:53:53;;;;;;;;;;;14.60;99.90;;;;;;5081902;28;19930;-76
2022/10/08 08:56:21;;;;;;;;;;;14.80;99.90;;;;;;5081167;28;19992;-76
2022/10/08 08:58:57;;;;;;;;;;;15.00;99.90;;;;;;5080958;28;20566;-76
2022/10/08 09:01:29;;;;;;;;;;;15.20;99.90;;;;;;5062363;28;19943;-77
2022/10/08 09:03:58;;;;;;;;;;;15.30;99.90;;;;;;5062436;28;20154;-81
2022/10/08 09:06:26;;;;;;;;;;;15.40;99.90;;;;;;5080602;28;19961;-83
2022/10/08 09:08:55;;;;;;;;;;;15.10;99.90;;;;;;5080355;28;19903;-77
2022/10/08 09:11:22;;;;;;;;;;;15.60;99.90;;;;;;5062341;28;19911;-77
2022/10/08 09:13:51;;;;;;;;;;;15.70;99.90;;;;;;5080296;28;19911;-77
2022/10/08 09:16:17;;;;;;;;;;;15.60;99.90;;;;;;5061702;28;19908;-77
2022/10/08 09:18:49;;;;;;;;;;;15.60;99.90;;;;;;5061648;28;19904;-78
2022/10/08 09:21:16;;;;;;;;;;;15.80;99.90;;;;;;5061554;28;20495;-75
2022/10/08 09:23:42;;;;;;;;;;;16.10;99.90;;;;;;5060876;28;20306;-81
2022/10/08 09:26:07;;;;;;;;;;;16.30;99.90;;;;;;5061259;28;20355;-75
2022/10/08 09:28:44;;;;;;;;;;;16.30;99.90;;;;;;5080428;28;20428;-75
2022/10/08 09:31:11;;;;;;;;;;;16.20;99.90;;;;;;5061679;28;19904;-76
2022/10/08 09:33:38;;;;;;;;;;;16.30;99.90;;;;;;5061804;28;20402;-75
2022/10/08 09:36:03;;;;;;;;;;;16.30;99.90;;;;;;5061468;28;19912;-76
2022/10/08 09:38:33;;;;;;;;;;;16.80;99.90;;;;;;5061425;28;20211;-75
2022/10/08 09:41:00;;;;;;;;;;;17.00;99.90;;;;;;5061680;28;19999;-75
2022/10/08 09:43:25;;;;;;;;;;;17.10;99.90;;;;;;5063717;28;19904;-78
2022/10/08 09:45:53;;;;;;;;;;;17.70;99.90;;;;;;5081770;28;20083;-76
2022/10/08 09:48:21;;;;;;;;;;;13.70;99.80;;;;;;5065676;28;19943;-83
2022/10/08 09:50:47;;;;;;;;;;;17.10;99.90;;;;;;5063441;28;20013;-77
2022/10/08 09:53:13;;;;;;;;;;;17.40;99.70;;;;;;5080418;28;20410;-76
2022/10/08 09:55:39;;;;;;;;;;;17.60;99.60;;;;;;5063825;28;19963;-81
2022/10/08 09:58:14;;;;;;;;;;;17.60;98.30;;;;;;5063471;28;20174;-79
2022/10/08 10:00:39;;;;;;;;;;;17.90;97.90;;;;;;5082174;28;19907;-78
2022/10/08 10:03:06;;;;;;;;;;;18.20;97.70;;;;;;5080779;28;19904;-77
2022/10/08 10:05:35;;;;;;;;;;;18.30;97.40;;;;;;5062367;28;20355;-81
2022/10/08 10:08:01;;;;;;;;;;;18.60;96.90;;;;;;5080051;28;19959;-77
2022/10/08 10:10:29;;;;;;;;;;;18.90;96.60;;;;;;5081793;28;20201;-80
2022/10/08 10:13:08;;;;;;;;;;;19.10;96.20;;;;;;5079717;28;19995;-77
2022/10/08 10:15:37;;;;;;;;;;;19.40;94.60;;;;;;5061250;28;19911;-77
2022/10/08 10:18:09;;;;;;;;;;;20.30;94.30;;;;;;5080067;28;19904;-84
2022/10/08 10:20:40;;;;;;;;;;;19.80;93.50;;;;;;5080143;28;19977;-79
2022/10/08 10:23:08;;;;;;;;;;;20.10;93.10;;;;;;5079661;28;19961;-78
2022/10/08 10:25:37;;;;;;;;;;;20.30;93.20;;;;;;5079623;28;19912;-85
2022/10/08 10:28:05;;;;;;;;;;;20.30;93.90;;;;;;5080132;28;20398;-81
2022/10/08 10:30:33;;;;;;;;;;;20.40;92.70;;;;;;5061518;28;20381;-77
2022/10/08 10:33:04;;;;;;;;;;;20.60;92.30;;;;;;5078824;28;20121;-77
2022/10/08 10:35:30;;;;;;;;;;;20.80;92.50;;;;;;5061424;28;19904;-77
2022/10/08 10:38:01;;;;;;;;;;;20.90;91.10;;;;;;5061728;28;19904;-76
2022/10/08 10:40:29;;;;;;;;;;;21.00;90.90;;;;;;5061135;28;20419;-80
2022/10/08 10:43:14;;;;;;;;;;;20.80;90.70;;;;;;5079924;28;19908;-76
2022/10/08 10:45:41;;;;;;;;;;;21.10;90.20;;;;;;5061089;28;20379;-78
2022/10/08 10:48:08;;;;;;;;;;;21.40;89.70;;;;;;5060923;28;20336;-78
2022/10/08 10:50:42;;;;;;;;;;;21.50;88.60;;;;;;5079153;28;19979;-78
2022/10/08 10:53:27;;;;;;;;;;;21.70;87.90;;;;;;5060373;28;20368;-82
2022/10/08 10:56:07;;;;;;;;;;;21.90;86.80;;;;;;5060975;28;20314;-78
2022/10/08 10:58:39;;;;;;;;;;;21.50;84.40;;;;;;5060285;28;20108;-79
2022/10/08 11:01:11;;;;;;;;;;;22.00;84.40;;;;;;5060502;28;19904;-78
2022/10/08 11:03:45;;;;;;;;;;;20.10;82.80;;;;;;5078416;28;19904;-77
2022/10/08 11:06:14;;;;;;;;;;;19.60;83.70;;;;;;5060312;28;19935;-79
2022/10/08 11:08:50;;;;;;;;;;;22.20;84.30;;;;;;5082536;28;19915;-79
2022/10/08 11:11:27;;;;;;;;;;;22.30;83.30;;;;;;5080818;28;19919;-78
2022/10/08 11:14:05;;;;;;;;;;;22.60;83.40;;;;;;5064060;28;19923;-78
2022/10/08 11:16:42;;;;;;;;;;;19.70;80.70;;;;;;5083282;28;19915;-78
2022/10/08 11:19:40;;;;;;;;;;;22.70;81.90;;;;;;5081237;28;19908;-83
2022/10/08 11:22:08;;;;;;;;;;;22.70;82.10;;;;;;4977436;28;20332;-78
2022/10/08 11:24:36;;;;;;;;;;;22.60;82.60;;;;;;4961066;28;20181;-82
2022/10/08 11:27:12;;;;;;;;;;;23.00;80.90;;;;;;4976498;28;19937;-81
2022/10/08 11:29:38;;;;;;;;;;;22.30;81.40;;;;;;4959825;28;20408;-79
2022/10/08 11:32:13;;;;;;;;;;;24.90;82.90;;;;;;4975829;28;20008;-80
2022/10/08 11:34:45;;;;;;;;;;;21.50;79.00;;;;;;4976180;28;19910;-78
2022/10/08 11:37:33;;;;;;;;;;;24.30;80.90;;;;;;4976123;28;19905;-82
2022/10/08 11:40:17;;;;;;;;;;;24.60;78.10;;;;;;4918130;29;19918;-79
2022/10/08 11:42:51;;;;;;;;;;;24.70;77.00;;;;;;4903507;29;19907;-80
2022/10/08 11:45:23;;;;;;;;;;;24.80;75.00;;;;;;4921297;29;19949;-79
2022/10/08 11:47:56;;;;;;;;;;;24.80;74.90;;;;;;4907686;29;19915;-78
2022/10/08 11:50:21;;;;;;;;;;;25.00;73.80;;;;;;4907686;29;19911;-80
2022/10/08 11:52:47;;;;;;;;;;;24.80;74.20;;;;;;4923783;29;19932;-77
2022/10/08 11:55:24;;;;;;;;;;;25.20;74.40;;;;;;4922149;29;20288;-79
2022/10/08 11:58:12;;;;;;;;;;;25.30;72.40;;;;;;4942696;28;19905;-82
2022/10/08 12:00:39;;;;;;;;;;;25.20;73.00;;;;;;5001528;28;19909;-78
2022/10/08 12:03:25;;;;;;;;;;;25.50;72.40;;;;;;5002751;28;19916;-77
2022/10/08 12:05:53;;;;;;;;;;;26.00;73.00;;;;;;5003101;28;19905;-79
2022/10/08 12:08:36;;;;;;;;;;;26.30;70.10;;;;;;5019156;28;19945;-77
2022/10/08 12:11:22;;;;;;;;;;;26.50;68.10;;;;;;5020267;28;19909;-78
2022/10/08 12:14:08;;;;;;;;;;;26.70;68.40;;;;;;4996845;28;20012;-79
2022/10/08 12:16:46;;;;;;;;;;;26.90;67.80;;;;;;5016187;28;20118;-76
2022/10/08 12:19:30;;;;;;;;;;;26.70;64.20;;;;;;5051491;28;20386;-84
2022/10/08 12:21:56;;;;;;;;;;;26.50;65.10;;;;;;5071586;28;19904;-79
2022/10/08 12:24:45;;;;;;;;;;;26.70;67.40;;;;;;5057442;28;19923;-84
2022/10/08 12:27:16;;;;;;;;;;;26.60;66.70;;;;;;5075552;28;19956;-81
2022/10/08 12:29:51;;;;;;;;;;;26.50;67.60;;;;;;5072919;28;19911;-75
2022/10/08 12:32:17;;;;;;;;;;;27.60;68.50;;;;;;5071771;28;19904;-78
2022/10/08 12:34:42;;;;;;;;;;;26.30;68.10;;;;;;5049470;28;20344;-79
2022/10/08 12:37:21;;;;;;;;;;;26.20;68.20;;;;;;5048823;28;19904;-77
2022/10/08 12:39:47;;;;;;;;;;;22.90;66.10;;;;;;5049593;28;19943;-79
2022/10/08 12:42:35;;;;;;;;;;;25.80;68.40;;;;;;5047209;28;19919;-90
2022/10/08 12:45:06;;;;;;;;;;;25.60;68.70;;;;;;5063322;28;19934;-81
2022/10/08 12:47:45;;;;;;;;;;;25.60;69.40;;;;;;5062685;28;20417;-87
2022/10/08 12:50:23;;;;;;;;;;;25.40;69.20;;;;;;5045028;28;19904;-78
2022/10/08 12:52:49;;;;;;;;;;;25.20;69.50;;;;;;5044780;28;20354;-86
2022/10/08 12:55:20;;;;;;;;;;;24.90;70.80;;;;;;5062604;28;20008;-78
2022/10/08 12:57:46;;;;;;;;;;;24.40;71.50;;;;;;5044302;28;20163;-84
2022/10/08 13:00:32;;;;;;;;;;;24.80;72.20;;;;;;5062153;28;19905;-82
2022/10/08 13:03:06;;;;;;;;;;;24.70;72.30;;;;;;5043319;28;20208;-80
2022/10/08 13:05:31;;;;;;;;;;;24.70;71.30;;;;;;5061971;28;19904;-79
2022/10/08 13:07:57;;;;;;;;;;;24.60;73.10;;;;;;5061018;28;19912;-81
2022/10/08 13:10:26;;;;;;;;;;;24.40;73.10;;;;;;5060502;28;20397;-78
2022/10/08 13:12:58;;;;;;;;;;;24.40;74.70;;;;;;5055899;28;19927;-80
2022/10/08 13:15:25;;;;;;;;;;;24.40;72.90;;;;;;5081153;28;19908;-79
2022/10/08 13:17:50;;;;;;;;;;;24.50;74.20;;;;;;5062151;28;20513;-85
2022/10/08 13:20:18;;;;;;;;;;;21.20;71.30;;;;;;5080795;28;20010;-76
2022/10/08 13:22:43;;;;;;;;;;;26.60;74.10;;;;;;5080658;28;20402;-76
2022/10/08 13:25:28;;;;;;;;;;;25.30;72.00;;;;;;5062385;28;19969;-77
2022/10/08 13:28:10;;;;;;;;;;;25.50;71.20;;;;;;5080705;28;20004;-79
2022/10/08 13:30:35;;;;;;;;;;;25.60;71.10;;;;;;5062394;28;19974;-78
2022/10/08 13:33:02;;;;;;;;;;;25.80;70.90;;;;;;5081062;28;19904;-78
2022/10/08 13:35:28;;;;;;;;;;;25.90;70.70;;;;;;5062585;28;19904;-81
2022/10/08 13:37:54;;;;;;;;;;;25.90;71.40;;;;;;5080893;28;20374;-78
2022/10/08 13:40:21;;;;;;;;;;;25.80;69.70;;;;;;5080542;28;20049;-78
2022/10/08 13:42:54;;;;;;;;;;;26.10;69.50;;;;;;5062077;28;19912;-79
2022/10/08 13:45:24;;;;;;;;;;;26.30;68.40;;;;;;5080376;28;19904;-78
2022/10/08 13:47:51;;;;;;;;;;;26.20;68.20;;;;;;5062307;28;19923;-79
2022/10/08 13:50:16;;;;;;;;;;;26.20;67.90;;;;;;5080376;28;19931;-78
2022/10/08 13:52:49;;;;;;;;;;;26.10;67.80;;;;;;5062582;28;19926;-78
2022/10/08 13:55:35;;;;;;;;;;;26.00;68.10;;;;;;5080521;28;19916;-77
2022/10/08 13:58:02;;;;;;;;;;;25.90;68.20;;;;;;5080078;28;19907;-82
2022/10/08 14:00:32;;;;;;;;;;;25.80;68.70;;;;;;5080588;28;19915;-77
2022/10/08 14:02:57;;;;;;;;;;;25.60;69.50;;;;;;5080087;28;20131;-78
2022/10/08 14:05:23;;;;;;;;;;;25.30;70.30;;;;;;5079408;28;19904;-80
2022/10/08 14:07:51;;;;;;;;;;;25.10;70.80;;;;;;5079544;28;19939;-84
2022/10/08 14:10:18;;;;;;;;;;;25.00;71.00;;;;;;5080492;28;19904;-84
2022/10/08 14:12:44;;;;;;;;;;;24.70;71.80;;;;;;5061367;28;20376;-78
2022/10/08 14:15:12;;;;;;;;;;;21.70;71.50;;;;;;5060903;28;19912;-80
2022/10/08 14:17:38;;;;;;;;;;;24.70;74.10;;;;;;5061715;28;19904;-78
2022/10/08 14:20:04;;;;;;;;;;;24.20;74.40;;;;;;5080081;28;19914;-79
2022/10/08 14:22:37;;;;;;;;;;;24.10;74.40;;;;;;5061597;28;20451;-79
2022/10/08 14:25:22;;;;;;;;;;;23.90;75.60;;;;;;5062255;28;20329;-82
2022/10/08 14:27:51;;;;;;;;;;;23.70;75.90;;;;;;5061632;28;19920;-82
2022/10/08 14:30:17;;;;;;;;;;;23.70;77.00;;;;;;5085125;28;19912;-81
2022/10/08 14:32:43;;;;;;;;;;;23.60;77.70;;;;;;5085519;28;19904;-82
2022/10/08 14:35:09;;;;;;;;;;;23.50;76.50;;;;;;5086548;28;19904;-78
2022/10/08 14:37:35;;;;;;;;;;;23.40;77.10;;;;;;5085630;28;19935;-76